createdAt,value
2023-04-16T00:02:00.939Z,75.18
2023-04-16T00:04:27.848Z,74.25
2023-04-16T00:06:54.958Z,73.91
2023-04-16T00:09:21.855Z,74.48
2023-04-16T00:11:48.605Z,75.40
2023-04-16T00:14:16.676Z,76.04
2023-04-16T00:16:43.503Z,75.00
2023-04-16T00:19:11.082Z,74.57
2023-04-16T00:21:38.041Z,74.80
2023-04-16T00:24:04.854Z,75.50
2023-04-16T00:26:31.884Z,75.24
2023-04-16T00:28:58.646Z,75.06
2023-04-16T00:31:30.064Z,74.24
2023-04-16T00:33:57.508Z,74.80
2023-04-16T00:36:25.781Z,76.60
2023-04-16T00:38:52.696Z,77.52
2023-04-16T00:41:19.816Z,77.47
2023-04-16T00:43:46.593Z,76.92
2023-04-16T00:46:13.774Z,74.59
2023-04-16T00:48:41.759Z,73.68
2023-04-16T00:51:09.937Z,74.98
2023-04-16T00:53:37.494Z,73.42
2023-04-16T00:56:07.101Z,73.98
2023-04-16T00:58:35.660Z,74.14
2023-04-16T01:01:02.797Z,73.87
2023-04-16T01:03:41.194Z,74.22
2023-04-16T01:06:08.531Z,74.91
2023-04-16T01:08:35.705Z,74.83
2023-04-16T01:11:03.392Z,76.64
2023-04-16T01:13:30.723Z,75.84
2023-04-16T01:15:57.588Z,76.57
2023-04-16T01:18:26.279Z,75.98
2023-04-16T01:20:53.104Z,75.78
2023-04-16T01:23:20.663Z,76.39
2023-04-16T01:25:47.572Z,76.24
2023-04-16T01:28:14.576Z,75.64
2023-04-16T01:30:41.732Z,75.78
2023-04-16T01:33:18.512Z,75.47
2023-04-16T01:35:45.405Z,74.86
2023-04-16T01:38:15.438Z,75.12
2023-04-16T01:40:42.300Z,75.81
2023-04-16T01:43:09.139Z,77.09
2023-04-16T01:45:36.334Z,75.18
2023-04-16T01:48:04.268Z,76.05
2023-04-16T01:50:31.998Z,76.22
2023-04-16T01:52:58.787Z,76.55
2023-04-16T01:55:25.729Z,76.30
2023-04-16T01:57:52.610Z,74.24
2023-04-16T02:00:20.840Z,75.38
2023-04-16T02:02:49.457Z,75.46
2023-04-16T02:05:24.100Z,75.15
2023-04-16T02:07:50.907Z,76.02
2023-04-16T02:10:17.596Z,76.51
2023-04-16T02:12:45.148Z,77.72
2023-04-16T02:15:13.362Z,77.64
2023-04-16T02:17:40.354Z,77.99
2023-04-16T02:20:10.918Z,77.43
2023-04-16T02:22:44.161Z,76.15
2023-04-16T02:25:14.371Z,76.20
2023-04-16T02:27:42.077Z,77.43
2023-04-16T02:30:24.384Z,77.64
2023-04-16T02:32:52.181Z,77.63
2023-04-16T02:35:20.023Z,75.69
2023-04-16T02:37:46.952Z,77.50
2023-04-16T02:40:13.887Z,78.07
2023-04-16T02:42:40.834Z,78.58
2023-04-16T02:45:08.856Z,77.58
2023-04-16T02:47:35.676Z,76.11
2023-04-16T02:50:02.919Z,75.05
2023-04-16T02:52:29.850Z,74.87
2023-04-16T02:54:56.654Z,76.63
2023-04-16T02:57:23.411Z,75.31
2023-04-16T02:59:50.281Z,76.54
2023-04-16T03:02:17.253Z,75.87
2023-04-16T03:04:44.191Z,74.12
2023-04-16T03:07:12.554Z,74.73
2023-04-16T03:09:39.803Z,75.40
2023-04-16T03:12:06.664Z,76.11
2023-04-16T03:14:33.381Z,75.01
2023-04-16T03:17:00.240Z,74.66
2023-04-16T03:19:26.970Z,75.24
2023-04-16T03:21:54.033Z,75.28
2023-04-16T03:24:20.752Z,75.63
2023-04-16T03:26:49.068Z,75.97
2023-04-16T03:29:16.192Z,77.02
2023-04-16T03:31:43.301Z,76.01
2023-04-16T03:34:10.802Z,76.40
2023-04-16T03:36:39.856Z,77.19
2023-04-16T03:39:06.606Z,77.73
2023-04-16T03:41:33.414Z,77.34
2023-04-16T03:44:00.597Z,74.90
2023-04-16T03:46:27.533Z,75.35
2023-04-16T03:48:54.604Z,76.53
2023-04-16T03:51:26.573Z,77.39
2023-04-16T03:53:53.539Z,76.93
2023-04-16T03:56:20.870Z,76.20
2023-04-16T03:58:47.602Z,76.54
2023-04-16T04:01:14.326Z,76.30
2023-04-16T04:03:41.423Z,76.30
2023-04-16T04:06:09.083Z,77.56
2023-04-16T04:08:36.130Z,77.04
2023-04-16T04:11:04.761Z,77.75
2023-04-16T04:13:32.949Z,78.66
2023-04-16T04:15:59.792Z,78.01
2023-04-16T04:18:27.542Z,77.35
2023-04-16T04:20:54.292Z,77.32
2023-04-16T04:23:24.634Z,76.54
2023-04-16T04:25:51.507Z,76.10
2023-04-16T04:28:18.474Z,76.17
2023-04-16T04:30:45.306Z,76.56
2023-04-16T04:33:12.818Z,75.40
2023-04-16T04:35:39.701Z,76.15
2023-04-16T04:38:08.307Z,77.47
2023-04-16T04:40:35.192Z,77.57
2023-04-16T04:43:03.032Z,76.45
2023-04-16T04:45:31.807Z,75.90
2023-04-16T04:47:59.150Z,76.54
2023-04-16T04:50:26.062Z,77.53
2023-04-16T04:52:52.974Z,77.86
2023-04-16T04:55:19.714Z,77.69
2023-04-16T04:57:46.630Z,78.23
2023-04-16T05:00:13.778Z,77.98
2023-04-16T05:02:51.181Z,77.39
2023-04-16T05:05:18.065Z,78.25
2023-04-16T05:07:44.753Z,78.43
2023-04-16T05:10:11.519Z,78.70
2023-04-16T05:12:38.260Z,78.36
2023-04-16T05:15:05.364Z,77.22
2023-04-16T05:17:32.163Z,76.02
2023-04-16T05:19:58.966Z,76.87
2023-04-16T05:22:25.655Z,77.01
2023-04-16T05:24:52.495Z,77.04
2023-04-16T05:27:19.172Z,77.08
2023-04-16T05:29:45.951Z,77.25
2023-04-16T05:32:12.732Z,78.01
2023-04-16T05:34:39.438Z,77.63
2023-04-16T05:37:08.717Z,77.94
2023-04-16T05:39:35.533Z,77.70
2023-04-16T05:42:02.349Z,77.61
2023-04-16T05:44:29.092Z,79.43
2023-04-16T05:46:55.819Z,79.41
2023-04-16T05:49:22.577Z,79.37
2023-04-16T05:51:50.897Z,78.74
2023-04-16T05:54:17.859Z,79.20
2023-04-16T05:56:44.585Z,78.37
2023-04-16T05:59:11.725Z,76.53
2023-04-16T06:01:41.440Z,74.62
2023-04-16T06:04:08.266Z,75.42
2023-04-16T06:06:37.452Z,75.62
2023-04-16T06:09:04.415Z,76.05
2023-04-16T06:11:31.233Z,76.85
2023-04-16T06:13:58.310Z,74.62
2023-04-16T06:16:26.300Z,73.69
2023-04-16T06:18:53.200Z,74.16
2023-04-16T06:21:20.132Z,74.26
2023-04-16T06:23:47.034Z,73.76
2023-04-16T06:26:13.746Z,74.66
2023-04-16T06:28:40.505Z,73.42
2023-04-16T06:31:07.271Z,72.51
2023-04-16T06:33:34.104Z,72.27
2023-04-16T06:36:00.975Z,70.33
2023-04-16T06:38:27.765Z,68.70
2023-04-16T06:40:54.499Z,67.33
2023-04-16T06:43:21.728Z,66.13
2023-04-16T06:45:48.499Z,66.49
2023-04-16T06:48:15.633Z,66.08
2023-04-16T06:50:42.590Z,64.86
2023-04-16T06:53:09.444Z,65.69
2023-04-16T06:55:36.246Z,64.75
2023-04-16T06:58:03.664Z,63.65
2023-04-16T07:00:30.499Z,65.25
2023-04-16T07:03:01.513Z,64.30
2023-04-16T07:05:28.511Z,63.93
2023-04-16T07:07:57.537Z,62.54
2023-04-16T07:10:24.395Z,59.25
2023-04-16T07:12:51.330Z,60.88
2023-04-16T07:15:18.260Z,58.50
2023-04-16T07:17:45.022Z,59.66
2023-04-16T07:20:12.162Z,57.35
2023-04-16T07:22:38.984Z,58.29
2023-04-16T07:25:06.353Z,55.48
2023-04-16T07:27:33.141Z,55.05
2023-04-16T07:29:59.903Z,58.02
2023-04-16T07:32:26.766Z,52.89
2023-04-16T07:34:53.709Z,53.39
2023-04-16T07:37:20.486Z,55.04
2023-04-16T07:39:47.489Z,56.02
2023-04-16T07:42:14.410Z,57.33
2023-04-16T07:44:41.300Z,56.38
2023-04-16T07:47:08.035Z,55.08
2023-04-16T07:49:34.794Z,54.65
2023-04-16T07:52:02.269Z,54.50
2023-04-16T07:54:29.302Z,53.60
2023-04-16T07:56:56.085Z,50.47
2023-04-16T07:59:24.272Z,50.27
2023-04-16T08:01:53.348Z,50.88
2023-04-16T08:04:25.669Z,51.70
2023-04-16T08:06:53.501Z,52.42
2023-04-16T08:09:22.058Z,51.03
2023-04-16T08:11:49.980Z,52.30
2023-04-16T08:14:17.524Z,54.28
2023-04-16T08:16:44.507Z,53.39
2023-04-16T08:19:11.605Z,53.29
2023-04-16T08:21:38.948Z,50.41
2023-04-16T08:24:05.907Z,50.10
2023-04-16T08:26:32.677Z,50.05
2023-04-16T08:28:59.345Z,48.41
2023-04-16T08:31:26.368Z,44.28
2023-04-16T08:33:53.096Z,47.13
2023-04-16T08:36:19.984Z,43.85
2023-04-16T08:38:49.178Z,46.00
2023-04-16T08:41:16.228Z,46.34
2023-04-16T08:43:45.510Z,44.06
2023-04-16T08:46:12.757Z,46.85
2023-04-16T08:48:43.365Z,49.55
2023-04-16T08:51:11.197Z,46.51
2023-04-16T08:53:49.452Z,50.46
2023-04-16T08:56:23.683Z,46.27
2023-04-16T08:58:51.802Z,45.49
2023-04-16T09:01:19.428Z,44.62
2023-04-16T09:03:49.861Z,45.38
2023-04-16T09:06:17.539Z,43.37
2023-04-16T09:08:46.375Z,41.96
2023-04-16T09:11:19.815Z,45.36
2023-04-16T09:13:47.442Z,47.01
2023-04-16T09:16:15.480Z,48.15
2023-04-16T09:18:42.382Z,47.65
2023-04-16T09:21:12.992Z,46.66
2023-04-16T09:23:41.132Z,49.11
2023-04-16T09:26:07.977Z,48.95
2023-04-16T09:28:45.708Z,49.37
2023-04-16T09:31:17.340Z,49.72
2023-04-16T09:34:01.220Z,49.94
2023-04-16T09:36:28.376Z,48.43
2023-04-16T09:38:57.602Z,48.57
2023-04-16T09:41:27.671Z,49.24
2023-04-16T09:44:04.387Z,49.82
2023-04-16T09:46:32.177Z,47.66
2023-04-16T09:49:04.759Z,48.56
2023-04-16T09:51:37.877Z,45.96
2023-04-16T09:54:06.197Z,47.56
2023-04-16T09:56:32.922Z,43.12
2023-04-16T09:59:02.652Z,45.52
2023-04-16T10:01:31.083Z,44.48
2023-04-16T10:04:00.029Z,45.57
2023-04-16T10:06:29.756Z,45.98
2023-04-16T10:08:57.215Z,44.22
2023-04-16T10:11:24.323Z,44.00
2023-04-16T10:13:51.635Z,45.05
2023-04-16T10:16:18.663Z,43.74
2023-04-16T10:18:46.977Z,44.39
2023-04-16T10:21:15.447Z,43.72
2023-04-16T10:23:43.991Z,42.50
2023-04-16T10:26:10.868Z,41.13
2023-04-16T10:28:37.814Z,44.09
2023-04-16T10:31:08.443Z,41.12
2023-04-16T10:33:39.454Z,41.43
2023-04-16T10:36:10.877Z,41.68
2023-04-16T10:39:00.902Z,44.90
2023-04-16T10:41:27.863Z,40.50
2023-04-16T10:44:11.779Z,36.98
2023-04-16T10:46:39.777Z,39.37
2023-04-16T10:49:15.172Z,38.45
2023-04-16T10:51:42.611Z,41.24
2023-04-16T10:54:10.194Z,44.07
2023-04-16T10:56:37.789Z,39.03
2023-04-16T10:59:06.409Z,38.44
2023-04-16T11:01:38.372Z,38.03
2023-04-16T11:04:20.926Z,38.70
2023-04-16T11:07:08.175Z,37.72
2023-04-16T11:09:47.226Z,38.37
2023-04-16T11:12:16.378Z,39.01
2023-04-16T11:14:47.127Z,37.04
2023-04-16T11:17:14.035Z,37.87
2023-04-16T11:19:44.045Z,37.64
2023-04-16T11:22:17.411Z,37.81
2023-04-16T11:24:45.770Z,38.04
2023-04-16T11:27:16.155Z,34.40
2023-04-16T11:29:44.559Z,34.27
2023-04-16T11:32:22.000Z,36.43
2023-04-16T11:34:49.001Z,35.08
2023-04-16T11:37:16.248Z,35.57
2023-04-16T11:39:51.188Z,34.81
2023-04-16T11:42:25.176Z,33.80
2023-04-16T11:44:54.323Z,34.09
2023-04-16T11:47:21.510Z,36.38
2023-04-16T11:49:48.526Z,36.39
2023-04-16T11:52:29.261Z,35.60
2023-04-16T11:54:57.147Z,34.82
2023-04-16T11:57:28.215Z,33.11
2023-04-16T12:00:01.378Z,35.18
2023-04-16T12:02:45.200Z,33.98
2023-04-16T12:05:39.134Z,32.84
2023-04-16T12:08:11.017Z,36.12
2023-04-16T12:10:53.580Z,34.25
2023-04-16T12:13:20.447Z,34.48
2023-04-16T12:15:56.083Z,34.52
2023-04-16T12:18:28.995Z,39.48
2023-04-16T12:20:56.180Z,39.08
2023-04-16T12:23:31.984Z,36.28
2023-04-16T12:26:03.139Z,39.09
2023-04-16T12:28:32.575Z,39.52
2023-04-16T12:30:59.849Z,41.95
2023-04-16T12:33:26.755Z,41.05
2023-04-16T12:35:53.589Z,39.65
2023-04-16T12:38:22.185Z,43.94
2023-04-16T12:40:50.823Z,42.55
2023-04-16T12:43:21.525Z,44.02
2023-04-16T12:45:49.482Z,42.49
2023-04-16T12:48:16.246Z,45.04
2023-04-16T12:50:44.372Z,41.77
2023-04-16T12:53:11.988Z,42.58
2023-04-16T12:55:38.811Z,44.64
2023-04-16T12:58:10.556Z,45.15
2023-04-16T13:00:38.737Z,46.24
2023-04-16T13:03:05.683Z,46.43
2023-04-16T13:05:32.917Z,44.38
2023-04-16T13:07:59.649Z,46.50
2023-04-16T13:10:28.002Z,47.07
2023-04-16T13:12:54.732Z,48.84
2023-04-16T13:15:21.707Z,47.94
2023-04-16T13:17:48.670Z,47.07
2023-04-16T13:20:15.554Z,47.09
2023-04-16T13:22:42.342Z,47.60
2023-04-16T13:25:10.432Z,46.08
2023-04-16T13:27:37.163Z,47.61
2023-04-16T13:30:04.149Z,48.30
2023-04-16T13:32:31.501Z,47.23
2023-04-16T13:34:58.266Z,45.90
2023-04-16T13:37:25.094Z,46.85
2023-04-16T13:39:51.799Z,49.22
2023-04-16T13:42:18.626Z,50.86
2023-04-16T13:44:48.891Z,50.82
2023-04-16T13:47:16.145Z,50.90
2023-04-16T13:49:42.839Z,51.53
2023-04-16T13:52:09.657Z,52.38
2023-04-16T13:54:36.386Z,52.15
2023-04-16T13:57:03.334Z,54.88
2023-04-16T13:59:30.362Z,51.51
2023-04-16T14:01:57.781Z,51.83
2023-04-16T14:04:24.781Z,51.20
2023-04-16T14:06:51.873Z,50.09
2023-04-16T14:09:18.685Z,52.00
2023-04-16T14:11:45.573Z,49.87
2023-04-16T14:14:12.398Z,50.64
2023-04-16T14:16:39.263Z,47.61
2023-04-16T14:19:06.036Z,48.93
2023-04-16T14:21:32.833Z,49.88
2023-04-16T14:23:59.628Z,50.92
2023-04-16T14:26:26.388Z,47.62
2023-04-16T14:28:53.164Z,47.17
2023-04-16T14:31:20.623Z,47.40
2023-04-16T14:33:47.425Z,47.86
2023-04-16T14:36:14.436Z,49.86
2023-04-16T14:38:43.271Z,48.53
2023-04-16T14:41:14.417Z,49.07
2023-04-16T14:43:41.528Z,46.79
2023-04-16T14:46:08.497Z,45.23
2023-04-16T14:48:35.517Z,46.39
2023-04-16T14:51:02.318Z,46.16
2023-04-16T14:53:29.163Z,47.81
2023-04-16T14:55:59.123Z,48.90
2023-04-16T14:58:26.354Z,46.82
2023-04-16T15:00:53.512Z,46.46
2023-04-16T15:03:20.776Z,46.72
2023-04-16T15:05:54.762Z,46.73
2023-04-16T15:08:22.555Z,48.00
2023-04-16T15:10:49.308Z,48.92
2023-04-16T15:13:16.139Z,49.78
2023-04-16T15:15:43.536Z,51.04
2023-04-16T15:18:10.517Z,50.94
2023-04-16T15:20:37.281Z,50.26
2023-04-16T15:23:04.169Z,49.73
2023-04-16T15:25:32.089Z,48.76
2023-04-16T15:27:59.442Z,47.80
2023-04-16T15:30:26.208Z,48.71
2023-04-16T15:32:55.069Z,49.25
2023-04-16T15:35:22.008Z,50.32
2023-04-16T15:37:48.989Z,50.37
2023-04-16T15:40:18.738Z,50.90
2023-04-16T15:42:45.730Z,51.11
2023-04-16T15:45:12.571Z,52.18
2023-04-16T15:47:41.688Z,51.99
2023-04-16T15:50:09.014Z,52.09
2023-04-16T15:52:55.714Z,52.02
2023-04-16T15:55:22.588Z,51.97
2023-04-16T15:57:49.362Z,53.25
2023-04-16T16:00:19.301Z,52.67
2023-04-16T16:02:47.238Z,52.05
2023-04-16T16:05:15.182Z,53.86
2023-04-16T16:07:42.786Z,53.70
2023-04-16T16:10:10.814Z,54.19
2023-04-16T16:12:37.738Z,53.06
2023-04-16T16:15:06.521Z,53.07
2023-04-16T16:17:33.822Z,53.73
2023-04-16T16:20:01.214Z,54.00
2023-04-16T16:22:28.632Z,54.16
2023-04-16T16:24:56.517Z,52.35
2023-04-16T16:27:23.258Z,53.46
2023-04-16T16:29:50.267Z,53.71
2023-04-16T16:32:17.298Z,54.42
2023-04-16T16:34:44.136Z,54.36
2023-04-16T16:37:11.095Z,54.19
2023-04-16T16:39:38.924Z,53.20
2023-04-16T16:42:06.289Z,52.76
2023-04-16T16:44:33.022Z,53.46
2023-04-16T16:46:59.938Z,54.78
2023-04-16T16:49:26.903Z,54.67
2023-04-16T16:51:53.732Z,54.12
2023-04-16T16:54:20.937Z,55.08
2023-04-16T16:56:47.728Z,55.97
2023-04-16T16:59:14.594Z,56.65
2023-04-16T17:01:41.971Z,53.98
2023-04-16T17:04:08.815Z,54.79
2023-04-16T17:06:36.091Z,55.43
2023-04-16T17:09:03.993Z,55.02
2023-04-16T17:11:31.297Z,54.18
2023-04-16T17:13:58.102Z,55.44
2023-04-16T17:16:26.105Z,56.52
2023-04-16T17:18:53.022Z,56.48
2023-04-16T17:21:19.903Z,58.31
2023-04-16T17:23:46.740Z,57.97
2023-04-16T17:26:13.852Z,58.93
2023-04-16T17:28:40.896Z,59.68
2023-04-16T17:31:08.671Z,60.48
2023-04-16T17:33:35.974Z,60.93
2023-04-16T17:36:03.010Z,62.01
2023-04-16T17:38:29.907Z,62.87
2023-04-16T17:40:57.748Z,62.94
2023-04-16T17:43:24.668Z,63.82
2023-04-16T17:45:51.532Z,64.37
2023-04-16T17:48:18.381Z,64.89
2023-04-16T17:50:45.239Z,64.85
2023-04-16T17:53:12.396Z,65.85
2023-04-16T17:55:39.587Z,66.70
2023-04-16T17:58:06.354Z,66.96
2023-04-16T18:00:33.466Z,66.62
2023-04-16T18:03:00.722Z,66.46
2023-04-16T18:05:27.701Z,66.78
2023-04-16T18:07:55.483Z,67.54
2023-04-16T18:10:22.304Z,68.21
2023-04-16T18:12:49.240Z,68.77
2023-04-16T18:15:16.327Z,69.66
2023-04-16T18:17:43.040Z,70.15
2023-04-16T18:20:10.828Z,70.36
2023-04-16T18:22:37.627Z,71.02
2023-04-16T18:25:05.416Z,70.63
2023-04-16T18:27:32.224Z,70.12
2023-04-16T18:29:59.478Z,69.84
2023-04-16T18:32:30.345Z,69.32
2023-04-16T18:34:57.816Z,69.35
2023-04-16T18:37:24.657Z,69.29
2023-04-16T18:39:51.463Z,69.91
2023-04-16T18:42:18.291Z,70.31
2023-04-16T18:44:51.744Z,71.20
2023-04-16T18:47:19.004Z,70.85
2023-04-16T18:49:45.907Z,70.50
2023-04-16T18:52:13.159Z,70.12
2023-04-16T18:54:41.993Z,69.90
2023-04-16T18:57:08.730Z,70.18
2023-04-16T18:59:35.777Z,70.48
2023-04-16T19:02:02.658Z,70.72
2023-04-16T19:04:29.474Z,70.27
2023-04-16T19:06:56.700Z,70.33
2023-04-16T19:09:25.413Z,70.85
2023-04-16T19:11:52.225Z,70.77
2023-04-16T19:14:18.987Z,71.22
2023-04-16T19:16:45.903Z,71.32
2023-04-16T19:19:12.878Z,70.93
2023-04-16T19:21:39.838Z,71.47
2023-04-16T19:24:07.191Z,70.79
2023-04-16T19:26:34.225Z,69.36
2023-04-16T19:29:01.123Z,70.20
2023-04-16T19:31:29.636Z,70.63
2023-04-16T19:33:56.585Z,71.08
2023-04-16T19:36:23.489Z,70.96
2023-04-16T19:38:50.667Z,70.85
2023-04-16T19:41:17.910Z,70.78
2023-04-16T19:43:44.916Z,71.37
2023-04-16T19:46:11.981Z,71.45
2023-04-16T19:48:38.817Z,70.09
2023-04-16T19:51:05.814Z,70.73
2023-04-16T19:53:32.758Z,71.16
2023-04-16T19:56:01.906Z,69.51
2023-04-16T19:58:28.726Z,69.27
2023-04-16T20:00:56.513Z,69.78
2023-04-16T20:03:23.443Z,69.97
2023-04-16T20:05:50.492Z,69.73
2023-04-16T20:08:17.525Z,68.10
2023-04-16T20:10:47.355Z,67.29
2023-04-16T20:13:16.100Z,66.91
2023-04-16T20:15:44.911Z,67.77
2023-04-16T20:18:12.920Z,68.65
2023-04-16T20:20:40.385Z,68.54
2023-04-16T20:23:07.316Z,68.96
2023-04-16T20:25:34.367Z,70.15
2023-04-16T20:28:01.151Z,69.76
2023-04-16T20:30:29.187Z,68.39
2023-04-16T20:32:56.686Z,68.92
2023-04-16T20:35:23.734Z,69.56
2023-04-16T20:37:50.637Z,69.19
2023-04-16T20:40:17.536Z,70.44
2023-04-16T20:42:46.401Z,70.48
2023-04-16T20:45:13.469Z,70.14
2023-04-16T20:47:40.821Z,68.06
2023-04-16T20:50:08.298Z,63.59
2023-04-16T20:52:36.483Z,63.67
2023-04-16T20:55:03.700Z,61.58
2023-04-16T20:57:32.080Z,59.27
2023-04-16T20:59:58.984Z,57.12
2023-04-16T21:02:28.011Z,56.65
2023-04-16T21:04:55.337Z,54.88
2023-04-16T21:07:22.121Z,55.99
2023-04-16T21:09:48.846Z,57.14
2023-04-16T21:12:15.605Z,57.76
2023-04-16T21:14:42.612Z,56.50
2023-04-16T21:17:09.453Z,56.06
2023-04-16T21:19:36.234Z,55.32
2023-04-16T21:22:03.219Z,55.06
2023-04-16T21:24:31.980Z,57.70
2023-04-16T21:26:58.746Z,59.79
2023-04-16T21:29:25.511Z,58.97
2023-04-16T21:31:52.689Z,58.01
2023-04-16T21:34:19.690Z,58.54
2023-04-16T21:36:46.688Z,56.97
2023-04-16T21:39:14.230Z,56.67
2023-04-16T21:41:41.103Z,59.09
2023-04-16T21:44:07.766Z,56.69
2023-04-16T21:46:34.591Z,58.56
2023-04-16T21:49:01.358Z,58.32
2023-04-16T21:51:30.952Z,58.28
2023-04-16T21:53:58.083Z,58.20
2023-04-16T21:56:25.883Z,57.45
2023-04-16T21:58:52.657Z,57.00
2023-04-16T22:01:19.486Z,56.19
2023-04-16T22:03:50.753Z,53.47
2023-04-16T22:06:17.917Z,55.26
2023-04-16T22:08:44.622Z,55.53
2023-04-16T22:11:11.430Z,55.42
2023-04-16T22:13:42.063Z,56.58
2023-04-16T22:16:11.516Z,57.96
2023-04-16T22:18:41.238Z,56.26
2023-04-16T22:21:09.253Z,57.50
2023-04-16T22:23:36.149Z,59.07
2023-04-16T22:26:04.316Z,60.21
2023-04-16T22:28:31.480Z,59.19
2023-04-16T22:30:58.353Z,59.80
2023-04-16T22:33:25.125Z,60.48
2023-04-16T22:35:52.014Z,61.77
2023-04-16T22:38:18.906Z,62.50
2023-04-16T22:40:48.427Z,61.93
2023-04-16T22:43:16.162Z,61.71
2023-04-16T22:45:43.233Z,63.78
2023-04-16T22:48:10.151Z,62.88
2023-04-16T22:50:36.901Z,61.81
2023-04-16T22:53:03.716Z,61.23
2023-04-16T22:55:30.673Z,59.29
2023-04-16T22:57:57.494Z,59.63
2023-04-16T23:00:27.426Z,58.84
2023-04-16T23:02:54.173Z,59.96
2023-04-16T23:05:21.107Z,61.39
2023-04-16T23:07:47.845Z,61.00
2023-04-16T23:10:14.634Z,60.56
2023-04-16T23:12:41.590Z,59.67
2023-04-16T23:15:09.003Z,61.12
2023-04-16T23:17:36.115Z,60.80
2023-04-16T23:20:05.312Z,62.06
2023-04-16T23:22:32.160Z,59.72
2023-04-16T23:24:58.799Z,58.58
2023-04-16T23:27:25.576Z,60.12
2023-04-16T23:29:52.354Z,60.83
2023-04-16T23:32:19.290Z,61.22
2023-04-16T23:34:46.052Z,62.47
2023-04-16T23:37:12.855Z,62.53
2023-04-16T23:39:39.579Z,61.30
2023-04-16T23:42:06.489Z,61.88
2023-04-16T23:44:33.575Z,61.74
2023-04-16T23:47:00.573Z,62.84
2023-04-16T23:49:27.443Z,61.84
2023-04-16T23:51:54.255Z,63.01
2023-04-16T23:54:21.445Z,64.34
2023-04-16T23:56:48.688Z,61.77
2023-04-16T23:59:18.300Z,61.91
